Main page
METAR-TAF:

METAR-TAF

Airports :

Yangon International Airport

Yangon, Myanmar

latitude: 16-46N, longitude: 096-10E, elevation: 14 m

Current weather observation

The report was made 1 hour and 8 minutes ago, at 19:30 UTC
Wind 3 kt from the North/Northeast
Temperature 23°C
Humidity 83%
Pressure 1013 hPa
Visibility: 6000 m

METAR: VYYY 151930Z 03003KT 6000 NSC 23/20 Q1013

Time: 03:08 (20:38 UTC)

Forecast

The report was made 9 hours and 38 minutes ago, at 11:00 UTC
Forecast valid from 15 at 12 UTC to 16 at 12 UTC
Wind 6 kt from the North/Northwest
Visibility: 7000 m
Few clouds at a height of 2500 ft
Temporary
from 15 at 12 UTC to 15 at 18 UTC
Wind 5 kt from the North/Northwest
Visibility: 6000 m
haze

TAF: VYYY 151100Z 1512/1612 33006KT 7000 FEW025 TEMPO 1512/1518 34005KT 6000 HZ

Weather observations and forecasts of more than 4000 airports (METAR and TAF reports).

The available stations are represented by yellow and red dots on the map.

Hover mouse over dot to see the name of the station.

Then click to see weather observations and forecasts.

To change the map : click on the green buttons with a black cross to zoom in, on the green button with a dash to zoom out, or on the green arrows for adjacent maps.


METAR-TAF: